sensor_id;sensor_type;location;lat;lon;timestamp;temperature;humidity
52397;DHT22;38322;53.108;6.308;2023-03-14T06:02:20;8.40;99.90
52397;DHT22;38322;53.108;6.308;2023-03-14T06:04:46;8.40;99.90
52397;DHT22;38322;53.108;6.308;2023-03-14T06:07:11;8.40;99.90
52397;DHT22;38322;53.108;6.308;2023-03-14T06:09:37;8.40;99.90
52397;DHT22;38322;53.108;6.308;2023-03-14T06:12:05;8.40;99.90
52397;DHT22;38322;53.108;6.308;2023-03-14T06:14:31;8.40;99.90
52397;DHT22;38322;53.108;6.308;2023-03-14T06:16:57;8.40;99.90
52397;DHT22;38322;53.108;6.308;2023-03-14T06:19:25;8.40;99.90
52397;DHT22;38322;53.108;6.308;2023-03-14T06:21:51;8.40;99.90
52397;DHT22;38322;53.108;6.308;2023-03-14T06:24:17;8.40;99.90
52397;DHT22;38322;53.108;6.308;2023-03-14T06:26:43;8.40;99.90
52397;DHT22;38322;53.108;6.308;2023-03-14T06:29:10;8.40;99.90
52397;DHT22;38322;53.108;6.308;2023-03-14T06:31:36;8.40;99.90
52397;DHT22;38322;53.108;6.308;2023-03-14T06:34:01;8.30;99.90
52397;DHT22;38322;53.108;6.308;2023-03-14T06:36:27;7.90;99.90
52397;DHT22;38322;53.108;6.308;2023-03-14T06:38:53;7.50;99.90
52397;DHT22;38322;53.108;6.308;2023-03-14T06:41:19;7.20;99.90
52397;DHT22;38322;53.108;6.308;2023-03-14T06:43:45;6.90;99.90
52397;DHT22;38322;53.108;6.308;2023-03-14T06:46:11;6.60;99.90
52397;DHT22;38322;53.108;6.308;2023-03-14T06:48:37;6.40;99.90
52397;DHT22;38322;53.108;6.308;2023-03-14T06:51:02;6.20;99.90
52397;DHT22;38322;53.108;6.308;2023-03-14T06:53:28;6.10;99.90
52397;DHT22;38322;53.108;6.308;2023-03-14T06:55:54;5.90;99.90
52397;DHT22;38322;53.108;6.308;2023-03-14T06:58:20;5.80;99.90
52397;DHT22;38322;53.108;6.308;2023-03-14T07:00:46;5.60;99.90
52397;DHT22;38322;53.108;6.308;2023-03-14T07:03:13;5.40;99.90
52397;DHT22;38322;53.108;6.308;2023-03-14T07:05:39;5.20;99.90
52397;DHT22;38322;53.108;6.308;2023-03-14T07:08:07;5.10;99.90
52397;DHT22;38322;53.108;6.308;2023-03-14T07:10:33;5.00;99.90
52397;DHT22;38322;53.108;6.308;2023-03-14T07:12:59;4.70;99.90
52397;DHT22;38322;53.108;6.308;2023-03-14T07:15:25;4.50;99.90
52397;DHT22;38322;53.108;6.308;2023-03-14T07:17:51;4.40;99.90
52397;DHT22;38322;53.108;6.308;2023-03-14T07:20:17;4.30;99.90
52397;DHT22;38322;53.108;6.308;2023-03-14T07:22:42;4.20;99.90
52397;DHT22;38322;53.108;6.308;2023-03-14T07:25:09;4.10;99.90
52397;DHT22;38322;53.108;6.308;2023-03-14T07:27:38;4.10;99.90
52397;DHT22;38322;53.108;6.308;2023-03-14T07:30:04;4.00;99.90
52397;DHT22;38322;53.108;6.308;2023-03-14T07:32:30;4.00;99.90
52397;DHT22;38322;53.108;6.308;2023-03-14T07:34:56;4.00;99.90
52397;DHT22;38322;53.108;6.308;2023-03-14T07:37:22;4.00;99.90
52397;DHT22;38322;53.108;6.308;2023-03-14T07:39:48;4.00;99.90
52397;DHT22;38322;53.108;6.308;2023-03-14T07:42:13;4.00;99.90
52397;DHT22;38322;53.108;6.308;2023-03-14T07:44:39;4.00;99.90
52397;DHT22;38322;53.108;6.308;2023-03-14T07:47:05;4.00;99.90
52397;DHT22;38322;53.108;6.308;2023-03-14T07:49:31;4.00;99.90
52397;DHT22;38322;53.108;6.308;2023-03-14T07:51:56;4.10;99.90
52397;DHT22;38322;53.108;6.308;2023-03-14T07:54:23;4.10;99.90
52397;DHT22;38322;53.108;6.308;2023-03-14T07:56:50;4.10;99.90
52397;DHT22;38322;53.108;6.308;2023-03-14T07:59:17;4.10;99.90
52397;DHT22;38322;53.108;6.308;2023-03-14T08:01:43;4.10;99.90
52397;DHT22;38322;53.108;6.308;2023-03-14T08:04:10;4.20;99.90
52397;DHT22;38322;53.108;6.308;2023-03-14T08:06:36;4.20;99.90
52397;DHT22;38322;53.108;6.308;2023-03-14T08:09:03;4.30;99.90
52397;DHT22;38322;53.108;6.308;2023-03-14T08:11:29;4.40;99.90
52397;DHT22;38322;53.108;6.308;2023-03-14T08:13:55;4.50;99.90
52397;DHT22;38322;53.108;6.308;2023-03-14T08:16:21;4.60;99.90
52397;DHT22;38322;53.108;6.308;2023-03-14T08:18:47;4.70;99.90
52397;DHT22;38322;53.108;6.308;2023-03-14T08:21:14;4.70;99.90
52397;DHT22;38322;53.108;6.308;2023-03-14T08:23:40;4.70;99.90
52397;DHT22;38322;53.108;6.308;2023-03-14T08:26:06;4.70;99.90
52397;DHT22;38322;53.108;6.308;2023-03-14T08:28:32;4.80;99.90
52397;DHT22;38322;53.108;6.308;2023-03-14T08:30:59;4.80;99.90
52397;DHT22;38322;53.108;6.308;2023-03-14T08:33:26;4.90;99.90
52397;DHT22;38322;53.108;6.308;2023-03-14T08:35:54;4.90;99.90
52397;DHT22;38322;53.108;6.308;2023-03-14T08:38:20;5.00;99.90
52397;DHT22;38322;53.108;6.308;2023-03-14T08:40:46;5.10;99.90
52397;DHT22;38322;53.108;6.308;2023-03-14T08:43:12;5.20;99.90
52397;DHT22;38322;53.108;6.308;2023-03-14T08:45:38;5.30;99.90
52397;DHT22;38322;53.108;6.308;2023-03-14T08:48:04;5.30;99.90
52397;DHT22;38322;53.108;6.308;2023-03-14T08:50:30;5.30;99.90
52397;DHT22;38322;53.108;6.308;2023-03-14T08:52:55;5.40;99.90
52397;DHT22;38322;53.108;6.308;2023-03-14T08:55:25;5.40;99.90
52397;DHT22;38322;53.108;6.308;2023-03-14T08:57:53;5.40;99.90
52397;DHT22;38322;53.108;6.308;2023-03-14T09:00:19;5.50;99.90
52397;DHT22;38322;53.108;6.308;2023-03-14T09:02:45;5.70;99.90
52397;DHT22;38322;53.108;6.308;2023-03-14T09:05:11;5.70;99.90
52397;DHT22;38322;53.108;6.308;2023-03-14T09:07:38;5.80;99.90
52397;DHT22;38322;53.108;6.308;2023-03-14T09:10:04;5.90;99.90
52397;DHT22;38322;53.108;6.308;2023-03-14T09:12:30;5.90;99.90
52397;DHT22;38322;53.108;6.308;2023-03-14T09:14:56;6.00;99.90
52397;DHT22;38322;53.108;6.308;2023-03-14T09:17:22;6.10;99.90
52397;DHT22;38322;53.108;6.308;2023-03-14T09:19:48;6.20;99.90
52397;DHT22;38322;53.108;6.308;2023-03-14T09:22:14;6.30;99.90
52397;DHT22;38322;53.108;6.308;2023-03-14T09:24:40;6.40;99.90
52397;DHT22;38322;53.108;6.308;2023-03-14T09:27:06;6.40;99.90
52397;DHT22;38322;53.108;6.308;2023-03-14T09:29:33;6.30;99.90
52397;DHT22;38322;53.108;6.308;2023-03-14T09:31:59;6.20;99.90
52397;DHT22;38322;53.108;6.308;2023-03-14T09:34:26;5.90;99.90
52397;DHT22;38322;53.108;6.308;2023-03-14T09:36:52;5.50;99.90
52397;DHT22;38322;53.108;6.308;2023-03-14T09:39:18;5.40;99.90
52397;DHT22;38322;53.108;6.308;2023-03-14T09:41:46;5.30;99.90
52397;DHT22;38322;53.108;6.308;2023-03-14T09:44:21;5.30;99.90
52397;DHT22;38322;53.108;6.308;2023-03-14T09:46:53;5.40;99.90
52397;DHT22;38322;53.108;6.308;2023-03-14T09:49:24;5.50;99.90
52397;DHT22;38322;53.108;6.308;2023-03-14T09:51:53;5.50;99.90
52397;DHT22;38322;53.108;6.308;2023-03-14T09:54:39;5.60;99.90
52397;DHT22;38322;53.108;6.308;2023-03-14T09:57:09;5.70;99.90
52397;DHT22;38322;53.108;6.308;2023-03-14T09:59:38;5.80;99.90
52397;DHT22;38322;53.108;6.308;2023-03-14T10:02:23;5.80;99.90
52397;DHT22;38322;53.108;6.308;2023-03-14T10:04:51;5.90;99.90
52397;DHT22;38322;53.108;6.308;2023-03-14T10:07:21;6.00;99.90
52397;DHT22;38322;53.108;6.308;2023-03-14T10:09:50;6.00;99.90
52397;DHT22;38322;53.108;6.308;2023-03-14T10:12:17;6.10;99.90
52397;DHT22;38322;53.108;6.308;2023-03-14T10:14:48;6.10;99.90
52397;DHT22;38322;53.108;6.308;2023-03-14T10:17:15;6.20;99.90
52397;DHT22;38322;53.108;6.308;2023-03-14T10:20:00;6.30;99.90
52397;DHT22;38322;53.108;6.308;2023-03-14T10:22:30;6.30;99.90
52397;DHT22;38322;53.108;6.308;2023-03-14T10:25:02;6.40;99.90
52397;DHT22;38322;53.108;6.308;2023-03-14T10:27:32;6.50;99.90
52397;DHT22;38322;53.108;6.308;2023-03-14T10:30:00;6.60;99.90
52397;DHT22;38322;53.108;6.308;2023-03-14T10:37:57;6.30;99.90
52397;DHT22;38322;53.108;6.308;2023-03-14T10:40:28;6.30;99.90
52397;DHT22;38322;53.108;6.308;2023-03-14T10:42:56;6.30;99.90
52397;DHT22;38322;53.108;6.308;2023-03-14T10:45:36;6.50;99.90
52397;DHT22;38322;53.108;6.308;2023-03-14T10:48:22;6.60;99.90
52397;DHT22;38322;53.108;6.308;2023-03-14T10:50:55;6.50;99.90
52397;DHT22;38322;53.108;6.308;2023-03-14T10:53:21;6.40;99.90
52397;DHT22;38322;53.108;6.308;2023-03-14T10:55:47;6.40;99.90
52397;DHT22;38322;53.108;6.308;2023-03-14T10:58:24;6.40;99.90
52397;DHT22;38322;53.108;6.308;2023-03-14T11:01:11;6.50;99.90
52397;DHT22;38322;53.108;6.308;2023-03-14T11:03:42;6.50;99.90
52397;DHT22;38322;53.108;6.308;2023-03-14T11:06:14;6.50;99.90
52397;DHT22;38322;53.108;6.308;2023-03-14T11:08:51;6.50;99.90
52397;DHT22;38322;53.108;6.308;2023-03-14T11:11:23;6.80;99.90
52397;DHT22;38322;53.108;6.308;2023-03-14T11:13:55;6.80;99.90
52397;DHT22;38322;53.108;6.308;2023-03-14T11:16:31;6.80;99.90
52397;DHT22;38322;53.108;6.308;2023-03-14T11:24:41;6.60;99.90
52397;DHT22;38322;53.108;6.308;2023-03-14T11:27:21;6.60;99.90
52397;DHT22;38322;53.108;6.308;2023-03-14T11:29:54;6.60;99.90
52397;DHT22;38322;53.108;6.308;2023-03-14T11:32:40;6.60;99.90
52397;DHT22;38322;53.108;6.308;2023-03-14T11:35:17;6.60;99.90
52397;DHT22;38322;53.108;6.308;2023-03-14T11:37:52;6.90;99.90
52397;DHT22;38322;53.108;6.308;2023-03-14T11:40:22;7.10;99.90
52397;DHT22;38322;53.108;6.308;2023-03-14T11:43:12;7.00;99.90
52397;DHT22;38322;53.108;6.308;2023-03-14T11:45:41;6.70;99.90
52397;DHT22;38322;53.108;6.308;2023-03-14T11:48:16;6.70;99.90
52397;DHT22;38322;53.108;6.308;2023-03-14T11:50:44;6.80;99.90
52397;DHT22;38322;53.108;6.308;2023-03-14T11:56:01;7.10;99.90
52397;DHT22;38322;53.108;6.308;2023-03-14T11:58:33;7.20;99.90
52397;DHT22;38322;53.108;6.308;2023-03-14T12:06:13;7.90;99.90
52397;DHT22;38322;53.108;6.308;2023-03-14T12:08:42;7.90;99.90
52397;DHT22;38322;53.108;6.308;2023-03-14T12:11:15;7.60;99.90
52397;DHT22;38322;53.108;6.308;2023-03-14T12:13:47;7.50;99.90
52397;DHT22;38322;53.108;6.308;2023-03-14T12:16:33;7.40;99.90
52397;DHT22;38322;53.108;6.308;2023-03-14T12:21:50;7.10;99.90
52397;DHT22;38322;53.108;6.308;2023-03-14T12:24:19;7.00;99.90
52397;DHT22;38322;53.108;6.308;2023-03-14T12:26:55;6.90;99.90
52397;DHT22;38322;53.108;6.308;2023-03-14T12:29:21;6.90;99.90
52397;DHT22;38322;53.108;6.308;2023-03-14T12:31:50;6.90;99.90
52397;DHT22;38322;53.108;6.308;2023-03-14T12:34:37;7.00;99.90
52397;DHT22;38322;53.108;6.308;2023-03-14T12:45:15;7.50;99.90
52397;DHT22;38322;53.108;6.308;2023-03-14T12:48:00;7.40;99.90
52397;DHT22;38322;53.108;6.308;2023-03-14T12:50:33;7.20;99.90
52397;DHT22;38322;53.108;6.308;2023-03-14T12:53:25;7.20;99.90
52397;DHT22;38322;53.108;6.308;2023-03-14T12:58:40;7.10;99.90
52397;DHT22;38322;53.108;6.308;2023-03-14T13:01:16;7.30;99.90
52397;DHT22;38322;53.108;6.308;2023-03-14T13:03:52;7.50;99.90
52397;DHT22;38322;53.108;6.308;2023-03-14T13:06:51;7.50;99.90
52397;DHT22;38322;53.108;6.308;2023-03-14T13:09:52;7.70;99.90
52397;DHT22;38322;53.108;6.308;2023-03-14T13:12:25;7.60;99.90
52397;DHT22;38322;53.108;6.308;2023-03-14T13:14:53;7.30;99.90
52397;DHT22;38322;53.108;6.308;2023-03-14T13:17:26;7.20;99.90
52397;DHT22;38322;53.108;6.308;2023-03-14T13:19:55;7.20;99.90
52397;DHT22;38322;53.108;6.308;2023-03-14T13:22:26;7.10;99.90
52397;DHT22;38322;53.108;6.308;2023-03-14T13:25:02;7.10;99.90
52397;DHT22;38322;53.108;6.308;2023-03-14T13:27:30;7.00;99.90
52397;DHT22;38322;53.108;6.308;2023-03-14T13:29:57;6.90;99.90
52397;DHT22;38322;53.108;6.308;2023-03-14T13:32:28;6.90;99.90
52397;DHT22;38322;53.108;6.308;2023-03-14T13:34:57;6.90;99.90
52397;DHT22;38322;53.108;6.308;2023-03-14T13:37:25;6.90;99.90
52397;DHT22;38322;53.108;6.308;2023-03-14T13:39:53;6.80;99.90
52397;DHT22;38322;53.108;6.308;2023-03-14T13:42:21;6.60;99.90
52397;DHT22;38322;53.108;6.308;2023-03-14T13:44:52;6.50;99.90
52397;DHT22;38322;53.108;6.308;2023-03-14T13:47:20;6.40;99.90
52397;DHT22;38322;53.108;6.308;2023-03-14T13:49:48;6.60;99.90
52397;DHT22;38322;53.108;6.308;2023-03-14T13:52:24;6.80;99.90
52397;DHT22;38322;53.108;6.308;2023-03-14T13:54:55;6.90;99.90
52397;DHT22;38322;53.108;6.308;2023-03-14T13:57:20;7.00;99.90
52397;DHT22;38322;53.108;6.308;2023-03-14T14:00:00;7.00;99.90
52397;DHT22;38322;53.108;6.308;2023-03-14T14:02:27;6.90;99.90
52397;DHT22;38322;53.108;6.308;2023-03-14T14:04:53;6.80;99.90
52397;DHT22;38322;53.108;6.308;2023-03-14T14:07:19;7.00;99.90
52397;DHT22;38322;53.108;6.308;2023-03-14T14:09:48;7.00;99.90
52397;DHT22;38322;53.108;6.308;2023-03-14T14:12:27;7.00;99.90
52397;DHT22;38322;53.108;6.308;2023-03-14T14:15:03;6.90;99.90
52397;DHT22;38322;53.108;6.308;2023-03-14T14:17:46;6.90;99.90
52397;DHT22;38322;53.108;6.308;2023-03-14T14:20:29;6.80;99.90
52397;DHT22;38322;53.108;6.308;2023-03-14T14:22:58;6.80;99.90
52397;DHT22;38322;53.108;6.308;2023-03-14T14:25:24;6.90;99.90
52397;DHT22;38322;53.108;6.308;2023-03-14T14:27:51;6.90;99.90
52397;DHT22;38322;53.108;6.308;2023-03-14T14:32:42;6.90;99.90
52397;DHT22;38322;53.108;6.308;2023-03-14T14:35:24;6.90;99.90
52397;DHT22;38322;53.108;6.308;2023-03-14T14:37:50;7.00;99.90
52397;DHT22;38322;53.108;6.308;2023-03-14T14:40:19;7.00;99.90
52397;DHT22;38322;53.108;6.308;2023-03-14T14:42:45;7.00;99.90
52397;DHT22;38322;53.108;6.308;2023-03-14T14:45:17;7.10;99.90
52397;DHT22;38322;53.108;6.308;2023-03-14T14:47:53;7.10;99.90
52397;DHT22;38322;53.108;6.308;2023-03-14T14:50:34;7.10;99.90
52397;DHT22;38322;53.108;6.308;2023-03-14T14:53:03;6.80;99.90
52397;DHT22;38322;53.108;6.308;2023-03-14T14:55:45;6.60;99.90
52397;DHT22;38322;53.108;6.308;2023-03-14T14:58:29;6.60;99.90
52397;DHT22;38322;53.108;6.308;2023-03-14T15:01:02;6.40;99.90
52397;DHT22;38322;53.108;6.308;2023-03-14T15:03:31;6.50;99.90
52397;DHT22;38322;53.108;6.308;2023-03-14T15:05:58;6.50;99.90
52397;DHT22;38322;53.108;6.308;2023-03-14T15:08:25;6.50;99.90
52397;DHT22;38322;53.108;6.308;2023-03-14T15:10:51;6.50;99.90
52397;DHT22;38322;53.108;6.308;2023-03-14T15:13:17;6.50;99.90
52397;DHT22;38322;53.108;6.308;2023-03-14T15:15:44;6.50;99.90
52397;DHT22;38322;53.108;6.308;2023-03-14T15:18:14;6.60;99.90
52397;DHT22;38322;53.108;6.308;2023-03-14T15:20:41;6.60;99.90
52397;DHT22;38322;53.108;6.308;2023-03-14T15:23:10;6.70;99.90
52397;DHT22;38322;53.108;6.308;2023-03-14T15:25:36;6.50;99.90
52397;DHT22;38322;53.108;6.308;2023-03-14T15:28:13;6.50;99.90
52397;DHT22;38322;53.108;6.308;2023-03-14T15:30:39;6.40;99.90
52397;DHT22;38322;53.108;6.308;2023-03-14T15:33:05;6.30;99.90
52397;DHT22;38322;53.108;6.308;2023-03-14T15:35:36;6.10;99.90
52397;DHT22;38322;53.108;6.308;2023-03-14T15:38:02;6.00;99.90
52397;DHT22;38322;53.108;6.308;2023-03-14T15:40:29;5.90;99.90
52397;DHT22;38322;53.108;6.308;2023-03-14T15:42:54;5.90;99.90
52397;DHT22;38322;53.108;6.308;2023-03-14T15:45:20;5.80;99.90
52397;DHT22;38322;53.108;6.308;2023-03-14T15:47:46;5.70;99.90
52397;DHT22;38322;53.108;6.308;2023-03-14T15:50:12;5.50;99.90
52397;DHT22;38322;53.108;6.308;2023-03-14T15:52:38;5.40;99.90
52397;DHT22;38322;53.108;6.308;2023-03-14T15:55:04;5.40;99.90
52397;DHT22;38322;53.108;6.308;2023-03-14T15:57:30;5.30;99.90
52397;DHT22;38322;53.108;6.308;2023-03-14T15:59:56;5.30;99.90
52397;DHT22;38322;53.108;6.308;2023-03-14T16:02:22;5.30;99.90
52397;DHT22;38322;53.108;6.308;2023-03-14T16:04:48;5.30;99.90
52397;DHT22;38322;53.108;6.308;2023-03-14T16:07:14;5.00;99.90
52397;DHT22;38322;53.108;6.308;2023-03-14T16:09:40;4.80;99.90
52397;DHT22;38322;53.108;6.308;2023-03-14T16:12:06;4.70;99.90
52397;DHT22;38322;53.108;6.308;2023-03-14T16:14:33;4.60;99.90
52397;DHT22;38322;53.108;6.308;2023-03-14T16:16:59;4.50;99.90
52397;DHT22;38322;53.108;6.308;2023-03-14T16:19:25;4.50;99.90
52397;DHT22;38322;53.108;6.308;2023-03-14T16:21:53;4.50;99.90
52397;DHT22;38322;53.108;6.308;2023-03-14T16:24:19;4.40;99.90
52397;DHT22;38322;53.108;6.308;2023-03-14T16:26:45;4.40;99.90
52397;DHT22;38322;53.108;6.308;2023-03-14T16:29:12;4.30;99.90
52397;DHT22;38322;53.108;6.308;2023-03-14T16:31:38;4.40;99.90
52397;DHT22;38322;53.108;6.308;2023-03-14T16:34:08;4.40;99.90
52397;DHT22;38322;53.108;6.308;2023-03-14T16:36:34;4.50;99.90
52397;DHT22;38322;53.108;6.308;2023-03-14T16:39:00;4.60;99.90
52397;DHT22;38322;53.108;6.308;2023-03-14T16:41:26;4.70;99.90
52397;DHT22;38322;53.108;6.308;2023-03-14T16:43:58;4.70;99.90
52397;DHT22;38322;53.108;6.308;2023-03-14T16:46:23;4.80;99.90
52397;DHT22;38322;53.108;6.308;2023-03-14T16:48:52;4.70;99.90
52397;DHT22;38322;53.108;6.308;2023-03-14T16:51:19;4.70;99.90
52397;DHT22;38322;53.108;6.308;2023-03-14T16:53:45;4.70;99.90
52397;DHT22;38322;53.108;6.308;2023-03-14T16:56:12;4.60;99.90
52397;DHT22;38322;53.108;6.308;2023-03-14T16:58:39;4.50;99.90
52397;DHT22;38322;53.108;6.308;2023-03-14T17:01:12;4.50;99.90
52397;DHT22;38322;53.108;6.308;2023-03-14T17:03:41;4.50;99.90
52397;DHT22;38322;53.108;6.308;2023-03-14T17:06:10;4.50;99.90
52397;DHT22;38322;53.108;6.308;2023-03-14T17:08:36;4.50;99.90
52397;DHT22;38322;53.108;6.308;2023-03-14T17:11:02;4.40;99.90
52397;DHT22;38322;53.108;6.308;2023-03-14T17:13:28;4.40;99.90
52397;DHT22;38322;53.108;6.308;2023-03-14T17:15:57;4.30;99.90
52397;DHT22;38322;53.108;6.308;2023-03-14T17:18:24;4.30;99.90
52397;DHT22;38322;53.108;6.308;2023-03-14T17:20:51;4.30;99.90
52397;DHT22;38322;53.108;6.308;2023-03-14T17:23:18;4.30;99.90
52397;DHT22;38322;53.108;6.308;2023-03-14T17:25:46;4.20;99.90
52397;DHT22;38322;53.108;6.308;2023-03-14T17:28:12;4.10;99.90
52397;DHT22;38322;53.108;6.308;2023-03-14T17:30:38;4.00;99.90
52397;DHT22;38322;53.108;6.308;2023-03-14T17:33:04;4.00;99.90
52397;DHT22;38322;53.108;6.308;2023-03-14T17:35:30;4.00;99.90
52397;DHT22;38322;53.108;6.308;2023-03-14T17:37:56;3.90;99.90
52397;DHT22;38322;53.108;6.308;2023-03-14T17:40:22;4.00;99.90
52397;DHT22;38322;53.108;6.308;2023-03-14T17:42:48;3.90;99.90
52397;DHT22;38322;53.108;6.308;2023-03-14T17:45:15;3.90;99.90
52397;DHT22;38322;53.108;6.308;2023-03-14T17:47:41;3.80;99.90
52397;DHT22;38322;53.108;6.308;2023-03-14T17:50:08;3.70;99.90
52397;DHT22;38322;53.108;6.308;2023-03-14T17:52:35;3.70;99.90
52397;DHT22;38322;53.108;6.308;2023-03-14T17:55:01;3.60;99.90
52397;DHT22;38322;53.108;6.308;2023-03-14T17:57:27;3.60;99.90
52397;DHT22;38322;53.108;6.308;2023-03-14T17:59:53;3.50;99.90
52397;DHT22;38322;53.108;6.308;2023-03-14T18:02:20;3.40;99.90
52397;DHT22;38322;53.108;6.308;2023-03-14T18:04:47;3.40;99.90
52397;DHT22;38322;53.108;6.308;2023-03-14T18:07:12;3.30;99.90
52397;DHT22;38322;53.108;6.308;2023-03-14T18:09:39;3.30;99.90
52397;DHT22;38322;53.108;6.308;2023-03-14T18:12:05;3.20;99.90
52397;DHT22;38322;53.108;6.308;2023-03-14T18:14:31;3.10;99.90
52397;DHT22;38322;53.108;6.308;2023-03-14T18:16:57;3.10;99.90
52397;DHT22;38322;53.108;6.308;2023-03-14T18:19:24;3.00;99.90
52397;DHT22;38322;53.108;6.308;2023-03-14T18:21:50;2.90;99.90
52397;DHT22;38322;53.108;6.308;2023-03-14T18:24:19;2.90;99.90
52397;DHT22;38322;53.108;6.308;2023-03-14T18:26:45;2.80;99.90
52397;DHT22;38322;53.108;6.308;2023-03-14T18:29:11;2.70;99.90
52397;DHT22;38322;53.108;6.308;2023-03-14T18:31:40;2.70;99.90
52397;DHT22;38322;53.108;6.308;2023-03-14T18:34:06;2.70;99.90
52397;DHT22;38322;53.108;6.308;2023-03-14T18:36:32;2.80;99.90
52397;DHT22;38322;53.108;6.308;2023-03-14T18:38:58;2.80;99.90
52397;DHT22;38322;53.108;6.308;2023-03-14T18:41:25;2.80;99.90
52397;DHT22;38322;53.108;6.308;2023-03-14T18:43:52;2.80;99.90
52397;DHT22;38322;53.108;6.308;2023-03-14T18:46:20;2.80;99.90
52397;DHT22;38322;53.108;6.308;2023-03-14T18:48:46;2.90;99.90
52397;DHT22;38322;53.108;6.308;2023-03-14T18:51:14;2.90;99.90
52397;DHT22;38322;53.108;6.308;2023-03-14T18:53:42;3.00;99.90
52397;DHT22;38322;53.108;6.308;2023-03-14T18:56:08;3.10;99.90
52397;DHT22;38322;53.108;6.308;2023-03-14T18:58:38;3.10;99.90
52397;DHT22;38322;53.108;6.308;2023-03-14T19:01:04;3.10;99.90
52397;DHT22;38322;53.108;6.308;2023-03-14T19:03:32;3.20;99.90
52397;DHT22;38322;53.108;6.308;2023-03-14T19:05:58;3.30;99.90
52397;DHT22;38322;53.108;6.308;2023-03-14T19:08:26;3.30;99.90
52397;DHT22;38322;53.108;6.308;2023-03-14T19:10:54;3.30;99.90
52397;DHT22;38322;53.108;6.308;2023-03-14T19:13:22;3.30;99.90
52397;DHT22;38322;53.108;6.308;2023-03-14T19:15:48;3.30;99.90
52397;DHT22;38322;53.108;6.308;2023-03-14T19:18:14;3.20;99.90
52397;DHT22;38322;53.108;6.308;2023-03-14T19:20:41;3.10;99.90
52397;DHT22;38322;53.108;6.308;2023-03-14T19:23:08;3.10;99.90
52397;DHT22;38322;53.108;6.308;2023-03-14T19:25:34;3.10;99.90
52397;DHT22;38322;53.108;6.308;2023-03-14T19:28:00;3.10;99.90
52397;DHT22;38322;53.108;6.308;2023-03-14T19:30:26;3.00;99.90
52397;DHT22;38322;53.108;6.308;2023-03-14T19:32:52;3.10;99.90
52397;DHT22;38322;53.108;6.308;2023-03-14T19:35:18;3.10;99.90
52397;DHT22;38322;53.108;6.308;2023-03-14T19:37:44;3.00;99.90
52397;DHT22;38322;53.108;6.308;2023-03-14T19:40:11;3.00;99.90
52397;DHT22;38322;53.108;6.308;2023-03-14T19:42:37;3.00;99.90
52397;DHT22;38322;53.108;6.308;2023-03-14T19:45:03;3.00;99.90
52397;DHT22;38322;53.108;6.308;2023-03-14T19:47:30;3.00;99.90
52397;DHT22;38322;53.108;6.308;2023-03-14T19:49:56;2.90;99.90
52397;DHT22;38322;53.108;6.308;2023-03-14T19:52:24;2.90;99.90
52397;DHT22;38322;53.108;6.308;2023-03-14T19:54:50;2.80;99.90
52397;DHT22;38322;53.108;6.308;2023-03-14T19:57:17;2.80;99.90
52397;DHT22;38322;53.108;6.308;2023-03-14T19:59:43;2.80;99.90
52397;DHT22;38322;53.108;6.308;2023-03-14T20:02:13;2.80;99.90
52397;DHT22;38322;53.108;6.308;2023-03-14T20:04:40;2.70;99.90
52397;DHT22;38322;53.108;6.308;2023-03-14T20:07:10;2.70;99.90
52397;DHT22;38322;53.108;6.308;2023-03-14T20:09:39;2.70;99.90
52397;DHT22;38322;53.108;6.308;2023-03-14T20:12:05;2.70;99.90
52397;DHT22;38322;53.108;6.308;2023-03-14T20:14:31;2.70;99.90
52397;DHT22;38322;53.108;6.308;2023-03-14T20:16:57;2.70;99.90
52397;DHT22;38322;53.108;6.308;2023-03-14T20:19:24;2.70;99.90
52397;DHT22;38322;53.108;6.308;2023-03-14T20:21:50;2.70;99.90
52397;DHT22;38322;53.108;6.308;2023-03-14T20:24:16;2.60;99.90
52397;DHT22;38322;53.108;6.308;2023-03-14T20:26:42;2.60;99.90
52397;DHT22;38322;53.108;6.308;2023-03-14T20:29:08;2.60;99.90
52397;DHT22;38322;53.108;6.308;2023-03-14T20:31:34;2.50;99.90
52397;DHT22;38322;53.108;6.308;2023-03-14T20:34:03;2.50;99.90
52397;DHT22;38322;53.108;6.308;2023-03-14T20:36:29;2.50;99.90
52397;DHT22;38322;53.108;6.308;2023-03-14T20:38:55;2.50;99.90
52397;DHT22;38322;53.108;6.308;2023-03-14T20:41:21;2.40;99.90
52397;DHT22;38322;53.108;6.308;2023-03-14T20:43:47;2.40;99.90
52397;DHT22;38322;53.108;6.308;2023-03-14T20:46:13;2.40;99.90
52397;DHT22;38322;53.108;6.308;2023-03-14T20:48:41;2.40;99.90
52397;DHT22;38322;53.108;6.308;2023-03-14T20:51:10;2.40;99.90
52397;DHT22;38322;53.108;6.308;2023-03-14T20:53:38;2.40;99.90
52397;DHT22;38322;53.108;6.308;2023-03-14T20:56:04;2.40;99.90
52397;DHT22;38322;53.108;6.308;2023-03-14T20:58:30;2.40;99.90
